Time;durP1;ratioP1;P1;durP2;ratioP2;P2;SDS_P1;SDS_P2;PMS_P1;PMS_P2;Temp;Humidity;BMP_temperature;BMP_pressure;BME280_temperature;BME280_humidity;BME280_pressure;Samples;Min_cycle;Max_cycle;Signal;HPM_P1;HPM_P2
2022/11/16 00:01:21;;;;;;;13.08;9.50;;;;;;;6.61;98.79;99338.84;1642495;85;20885;-79
2022/11/16 00:03:50;;;;;;;13.60;9.60;;;;;;;6.59;98.74;99328.55;1708797;81;21925;-78
2022/11/16 00:06:17;;;;;;;14.13;9.33;;;;;;;6.56;98.88;99333.00;1703690;82;21021;-79
2022/11/16 00:09:20;;;;;;;11.45;9.03;;;;;;;6.54;99.00;99320.53;1703576;81;21062;-79
2022/11/16 00:11:19;;;;;;;12.00;9.70;;;;;;;6.54;99.08;99329.61;1693725;82;21095;-79
2022/11/16 00:13:46;;;;;;;13.50;9.80;;;;;;;6.55;99.17;99331.30;1696419;82;20945;-78
2022/11/16 00:16:16;;;;;;;13.32;9.43;;;;;;;6.56;99.15;99333.00;1684198;83;20894;-78
2022/11/16 00:18:43;;;;;;;12.88;9.65;;;;;;;6.57;99.08;99332.09;1709135;82;20912;-79
2022/11/16 00:21:10;;;;;;;14.43;9.70;;;;;;;6.57;99.15;99332.09;1701678;83;21049;-79
2022/11/16 00:23:38;;;;;;;14.83;10.10;;;;;;;6.56;99.15;99330.41;1706368;82;20870;-78
2022/11/16 00:26:10;;;;;;;13.15;8.78;;;;;;;6.56;99.17;99329.11;1692095;82;21554;-79
2022/11/16 00:28:36;;;;;;;12.40;9.80;;;;;;;6.57;99.16;99333.39;1699198;82;20878;-79
2022/11/16 00:31:05;;;;;;;14.98;9.75;;;;;;;6.56;99.16;99334.30;1696008;82;20977;-79
2022/11/16 00:33:32;;;;;;;17.00;10.08;;;;;;;6.58;99.23;99337.66;1708922;82;21014;-79
2022/11/16 00:36:04;;;;;;;14.25;10.50;;;;;;;6.58;99.19;99323.40;1683494;82;21491;-79
2022/11/16 00:38:32;;;;;;;15.88;10.63;;;;;;;6.58;99.26;99324.69;1710340;82;20934;-79
2022/11/16 00:40:59;;;;;;;15.35;10.38;;;;;;;6.60;99.30;99325.49;1705322;82;20945;-79
2022/11/16 00:43:26;;;;;;;15.50;10.63;;;;;;;6.61;99.28;99329.34;1698269;82;20949;-78
2022/11/16 00:45:52;;;;;;;16.42;10.93;;;;;;;6.62;99.24;99341.85;1675218;84;22263;-79
2022/11/16 00:48:19;;;;;;;15.20;11.22;;;;;;;6.58;99.28;99334.64;1653579;85;20937;-79
2022/11/16 00:50:46;;;;;;;19.02;11.05;;;;;;;6.58;99.27;99335.07;1658023;85;20978;-78
2022/11/16 00:53:16;;;;;;;14.00;10.45;;;;;;;6.58;99.31;99341.12;1712464;82;20972;-78
2022/11/16 00:55:44;;;;;;;15.48;9.80;;;;;;;6.58;99.24;99343.73;1700172;81;20997;-79
2022/11/16 00:58:12;;;;;;;16.62;10.72;;;;;;;6.59;99.30;99351.05;1689736;83;21158;-79
2022/11/16 01:00:40;;;;;;;14.47;10.60;;;;;;;6.58;99.27;99349.34;1688634;83;20997;-79
2022/11/16 01:03:06;;;;;;;20.62;10.45;;;;;;;6.63;99.21;99352.61;1691848;83;20882;-79
2022/11/16 01:05:34;;;;;;;15.30;9.80;;;;;;;6.59;99.29;99354.94;1663195;83;20913;-78
2022/11/16 01:08:00;;;;;;;12.53;8.78;;;;;;;6.58;99.33;99350.20;1712125;82;21043;-78
2022/11/16 01:10:28;;;;;;;11.57;8.20;;;;;;;6.58;99.25;99353.23;1715205;82;21901;-78
2022/11/16 01:12:55;;;;;;;12.73;8.95;;;;;;;6.58;99.19;99350.63;1710692;82;23142;-78
2022/11/16 01:15:24;;;;;;;;;;;;;;;6.56;99.25;99359.78;1712733;82;20969;-79
2022/11/16 01:17:53;;;;;;;8.13;5.95;;;;;;;6.55;99.06;99352.05;1703419;83;20512;-79
2022/11/16 01:20:23;;;;;;;9.28;5.20;;;;;;;6.52;98.96;99353.45;1698917;82;20934;-78
2022/11/16 01:22:50;;;;;;;5.72;4.25;;;;;;;6.52;98.87;99354.75;1704391;82;21028;-78
2022/11/16 01:25:17;;;;;;;6.45;3.75;;;;;;;6.54;98.62;99351.20;1706130;82;20941;-78
2022/11/16 01:27:44;;;;;;;5.58;3.20;;;;;;;6.47;98.67;99345.41;1708447;81;20898;-78
2022/11/16 01:30:13;;;;;;;6.35;3.58;;;;;;;6.44;98.64;99336.45;1692636;83;20879;-78
2022/11/16 01:32:39;;;;;;;5.00;2.17;;;;;;;6.41;98.57;99340.45;1694967;82;20935;-78
2022/11/16 01:35:07;;;;;;;4.53;2.37;;;;;;;6.40;98.32;99338.73;1685465;83;21019;-78
2022/11/16 01:37:34;;;;;;;3.95;2.20;;;;;;;6.37;98.21;99331.08;1708331;82;20954;-78
2022/11/16 01:40:00;;;;;;;3.30;1.82;;;;;;;6.34;98.12;99329.89;1708501;81;21006;-78
2022/11/16 01:42:29;;;;;;;3.75;1.72;;;;;;;6.31;98.04;99327.41;1708311;82;20977;-78
2022/11/16 01:45:16;;;;;;;2.25;1.40;;;;;;;6.25;98.17;99326.34;1708704;82;21487;-78
2022/11/16 01:47:42;;;;;;;5.90;1.50;;;;;;;6.21;97.99;99329.93;1683191;82;21030;-79
2022/11/16 01:50:15;;;;;;;3.90;1.27;;;;;;;6.21;97.97;99326.88;1678416;83;20919;-77
2022/11/16 01:52:47;;;;;;;1.57;1.20;;;;;;;6.18;97.82;99322.27;1675405;83;20899;-78
2022/11/16 01:55:13;;;;;;;1.98;0.95;;;;;;;6.19;97.63;99325.24;1692069;83;20919;-78
2022/11/16 01:57:43;;;;;;;1.80;1.05;;;;;;;6.13;97.38;99330.65;1688050;83;20914;-78
2022/11/16 02:00:13;;;;;;;3.67;1.00;;;;;;;6.11;97.39;99328.58;1685903;83;21864;-78
2022/11/16 02:02:40;;;;;;;2.15;0.98;;;;;;;6.10;97.37;99329.46;1682965;83;21003;-78
2022/11/16 02:05:09;;;;;;;2.58;1.00;;;;;;;6.08;97.26;99334.72;1682752;83;21048;-78
2022/11/16 02:11:07;;;;;;;0.93;0.70;;;;;;;6.04;97.23;99326.18;1627311;87;20948;-78
2022/11/16 02:14:01;;;;;;;3.22;0.93;;;;;;;6.00;97.25;99331.55;1641350;85;21080;-78
2022/11/16 02:16:54;;;;;;;1.77;1.00;;;;;;;5.96;97.10;99324.30;1681053;84;20996;-78
2022/11/16 02:19:53;;;;;;;1.80;0.70;;;;;;;5.92;96.88;99324.00;1678762;84;21116;-78
2022/11/16 02:22:48;;;;;;;1.40;0.80;;;;;;;5.88;97.06;99309.47;1674538;83;20950;-79
2022/11/16 02:25:22;;;;;;;2.55;0.72;;;;;;;5.87;97.03;99319.41;1674885;84;20959;-79
2022/11/16 02:28:00;;;;;;;1.95;0.85;;;;;;;5.91;96.88;99324.91;1666034;83;21241;-78
2022/11/16 02:30:27;;;;;;;1.87;0.85;;;;;;;5.87;96.88;99320.71;1680273;83;20930;-78
2022/11/16 02:33:02;;;;;;;1.10;0.62;;;;;;;5.86;96.80;99323.37;1680141;83;20945;-78
2022/11/16 02:35:40;;;;;;;0.93;0.68;;;;;;;5.86;96.78;99319.48;1688734;83;21005;-78
2022/11/16 02:38:09;;;;;;;;;;;;;;;5.85;96.67;99316.02;1693099;84;20975;-78
2022/11/16 02:40:39;;;;;;;1.98;0.50;;;;;;;5.83;96.43;99316.55;1683156;83;21880;-78
2022/11/16 02:43:10;;;;;;;0.50;0.40;;;;;;;5.81;96.04;99321.77;1672311;83;21050;-78
2022/11/16 02:45:42;;;;;;;0.68;0.50;;;;;;;5.80;95.96;99321.84;1673573;84;20951;-78
2022/11/16 02:48:13;;;;;;;1.40;0.62;;;;;;;5.76;95.83;99317.19;1702275;82;20961;-78
2022/11/16 02:50:42;;;;;;;1.98;0.85;;;;;;;5.75;95.85;99305.59;1687513;83;20926;-78
2022/11/16 02:53:09;;;;;;;0.65;0.47;;;;;;;5.75;95.89;99307.73;1686982;84;21115;-78
2022/11/16 02:55:37;;;;;;;0.80;0.60;;;;;;;5.74;95.74;99315.55;1676917;83;20938;-78
2022/11/16 02:58:06;;;;;;;1.85;0.70;;;;;;;5.74;95.77;99309.94;1695100;83;20930;-78
2022/11/16 03:00:53;;;;;;;1.00;0.57;;;;;;;5.75;95.78;99306.89;1688432;83;21343;-78
2022/11/16 03:03:43;;;;;;;1.05;0.50;;;;;;;5.75;95.67;99306.44;1713305;82;26591;-79
2022/11/16 03:06:29;;;;;;;0.75;0.55;;;;;;;5.73;95.27;99303.50;1703855;82;21086;-78
2022/11/16 03:09:06;;;;;;;0.60;0.50;;;;;;;5.68;95.41;99298.92;1694721;82;20954;-78
2022/11/16 03:14:29;;;;;;;0.80;0.60;;;;;;;5.68;95.19;99305.40;1693111;82;20973;-78
2022/11/16 03:16:57;;;;;;;0.88;0.60;;;;;;;5.65;95.15;99301.63;1671731;83;20949;-78
2022/11/16 03:19:47;;;;;;;0.50;0.40;;;;;;;5.62;95.17;99297.39;1691039;82;21052;-78
2022/11/16 03:22:24;;;;;;;2.80;0.60;;;;;;;5.63;95.09;99303.41;1677545;85;20965;-78
2022/11/16 03:24:51;;;;;;;;;;;;;;;5.60;94.69;99302.64;1695446;83;21492;-78
2022/11/16 03:27:43;;;;;;;0.40;0.37;;;;;;;5.58;94.53;99296.66;1691971;83;20119;-78
2022/11/16 03:30:15;;;;;;;1.32;0.47;;;;;;;5.56;94.64;99293.26;1686608;83;21028;-78
2022/11/16 03:33:17;;;;;;;0.53;0.40;;;;;;;5.55;94.47;99291.58;1705848;82;21086;-78
2022/11/16 03:35:57;;;;;;;0.57;0.40;;;;;;;5.53;94.47;99295.95;1692927;82;21071;-78
2022/11/16 03:38:26;;;;;;;0.50;0.40;;;;;;;5.53;94.42;99288.19;1703500;82;21523;-78
2022/11/16 03:41:00;;;;;;;0.80;0.55;;;;;;;5.51;93.92;99284.80;1674477;84;21466;-78
2022/11/16 03:43:27;;;;;;;0.80;0.30;;;;;;;5.51;94.13;99289.97;1643365;85;20986;-78
2022/11/16 03:45:54;;;;;;;0.40;0.40;;;;;;;5.51;93.98;99283.95;1708450;82;21151;-78
2022/11/16 03:48:21;;;;;;;1.10;0.33;;;;;;;5.49;93.91;99289.20;1671541;84;20918;-78
2022/11/16 03:50:48;;;;;;;1.77;0.50;;;;;;;5.49;93.54;99286.61;1696894;83;20898;-78
2022/11/16 03:53:14;;;;;;;2.45;0.50;;;;;;;5.49;93.56;99286.61;1686751;83;20977;-78
2022/11/16 03:55:41;;;;;;;0.78;0.40;;;;;;;5.48;93.18;99282.31;1690200;83;21009;-78
2022/11/16 03:58:08;;;;;;;1.10;0.45;;;;;;;5.47;93.26;99288.39;1693519;82;21624;-77
2022/11/16 04:00:34;;;;;;;1.47;0.57;;;;;;;5.47;93.10;99298.75;1683964;83;20859;-78
2022/11/16 04:03:01;;;;;;;0.95;0.40;;;;;;;5.47;93.05;99287.10;1651266;84;20966;-78
2022/11/16 04:24:48;;;;;;;0.93;0.30;;;;;;;5.41;91.52;99283.43;1659783;84;21042;-78
2022/11/16 04:30:02;;;;;;;0.62;0.47;;;;;;;5.38;90.79;99309.42;1691968;83;21001;-77
2022/11/16 04:37:59;;;;;;;1.95;0.50;;;;;;;5.37;90.76;99293.02;1664733;84;21166;-77
2022/11/16 04:40:28;;;;;;;1.27;0.60;;;;;;;5.36;90.65;99277.55;1688265;83;20943;-77
2022/11/16 04:42:58;;;;;;;0.68;0.50;;;;;;;5.35;90.52;99283.64;1694788;83;20989;-77
2022/11/16 04:48:13;;;;;;;1.53;0.50;;;;;;;5.34;90.25;99276.75;1677152;84;20957;-77
2022/11/16 04:50:39;;;;;;;0.53;0.45;;;;;;;5.34;90.23;99268.98;1690769;83;21139;-77
2022/11/16 04:53:07;;;;;;;1.07;0.53;;;;;;;5.33;89.67;99269.89;1680245;83;20902;-77
2022/11/16 04:55:34;;;;;;;3.05;0.55;;;;;;;5.32;89.94;99270.77;1675446;83;20954;-77
2022/11/16 04:58:01;;;;;;;3.70;0.80;;;;;;;5.32;89.77;99266.88;1688134;83;20970;-77
2022/11/16 05:00:29;;;;;;;2.02;0.60;;;;;;;5.30;89.85;99281.19;1685922;83;20876;-77
2022/11/16 05:02:55;;;;;;;0.55;0.42;;;;;;;5.30;89.74;99275.17;1681893;83;21054;-77
2022/11/16 05:05:22;;;;;;;1.52;0.60;;;;;;;5.27;89.53;99265.76;1684746;82;20938;-77
2022/11/16 05:07:49;;;;;;;2.45;1.27;;;;;;;5.27;89.50;99263.63;1683844;83;20919;-78
2022/11/16 05:10:15;;;;;;;0.87;0.50;;;;;;;5.25;89.25;99279.64;1677730;83;20891;-78
2022/11/16 05:12:42;;;;;;;1.27;0.80;;;;;;;5.23;89.06;99277.55;1682681;83;21651;-78
2022/11/16 05:15:09;;;;;;;1.22;0.62;;;;;;;5.22;89.05;99274.57;1681259;83;21070;-78
2022/11/16 05:17:35;;;;;;;1.17;0.80;;;;;;;5.21;89.05;99275.45;1681200;83;20926;-78
2022/11/16 05:22:55;;;;;;;2.40;0.70;;;;;;;5.18;88.87;99275.55;1690973;83;20981;-77
2022/11/16 05:25:21;;;;;;;1.50;0.80;;;;;;;5.14;88.74;99273.06;1694212;83;20973;-78
2022/11/16 05:27:48;;;;;;;0.90;0.68;;;;;;;5.13;88.57;99281.73;1686771;83;21444;-78
2022/11/16 05:30:15;;;;;;;1.15;0.75;;;;;;;5.10;88.46;99270.19;1677386;83;20895;-77
2022/11/16 05:32:42;;;;;;;1.42;0.70;;;;;;;5.09;88.29;99271.06;1681486;83;20974;-78
2022/11/16 05:35:09;;;;;;;1.65;0.80;;;;;;;5.07;87.77;99275.47;1676391;83;20902;-77
2022/11/16 05:37:35;;;;;;;1.25;0.75;;;;;;;5.05;88.14;99283.72;1675275;83;20934;-77
2022/11/16 05:40:03;;;;;;;2.07;1.30;;;;;;;5.04;88.10;99276.86;1674999;83;21523;-77
2022/11/16 05:42:30;;;;;;;1.17;1.00;;;;;;;5.04;88.01;99270.81;1691109;83;21190;-78
2022/11/16 05:44:57;;;;;;;1.30;1.10;;;;;;;5.02;87.81;99270.88;1703261;83;20883;-77
2022/11/16 05:47:23;;;;;;;1.12;1.02;;;;;;;5.00;87.90;99267.48;1689465;83;21502;-78
2022/11/16 05:49:50;;;;;;;2.35;1.10;;;;;;;4.99;87.87;99276.16;1686334;83;20993;-78
2022/11/16 05:52:17;;;;;;;1.85;1.45;;;;;;;4.98;87.90;99277.03;1663865;83;21109;-78
2022/11/16 05:54:43;;;;;;;1.87;1.40;;;;;;;4.97;87.79;99281.81;1666354;83;20961;-78
2022/11/16 05:57:10;;;;;;;2.20;1.55;;;;;;;4.95;87.72;99284.89;1679915;83;20939;-77
2022/11/16 05:59:37;;;;;;;4.12;1.77;;;;;;;4.94;87.50;99270.27;1680617;83;21014;-77
2022/11/16 06:02:03;;;;;;;1.40;1.22;;;;;;;4.93;87.42;99291.87;1668862;83;21009;-78
2022/11/16 06:04:30;;;;;;;2.98;1.60;;;;;;;4.91;86.98;99301.42;1669835;84;21468;-78
2022/11/16 06:06:56;;;;;;;3.65;1.35;;;;;;;4.88;86.56;99301.52;1670239;84;20934;-78
2022/11/16 06:09:23;;;;;;;1.30;1.20;;;;;;;4.84;86.80;99307.66;1669936;83;20974;-79
2022/11/16 06:11:50;;;;;;;3.90;1.52;;;;;;;4.81;86.55;99307.75;1669238;83;21020;-79
2022/11/16 06:14:16;;;;;;;2.00;1.35;;;;;;;4.75;86.51;99307.95;1673493;83;21512;-79
2022/11/16 06:16:43;;;;;;;1.60;1.30;;;;;;;4.71;86.28;99291.69;1671959;83;21101;-79
2022/11/16 06:19:09;;;;;;;1.80;1.55;;;;;;;4.64;86.10;99309.10;1685547;83;20886;-79
2022/11/16 06:21:36;;;;;;;2.15;1.62;;;;;;;4.59;86.31;99310.97;1687422;83;20899;-79
2022/11/16 06:24:07;;;;;;;1.65;1.50;;;;;;;4.56;86.25;99316.23;1688403;83;20883;-78
2022/11/16 06:26:36;;;;;;;1.37;1.02;;;;;;;4.54;86.08;99312.00;1678471;83;21022;-78
2022/11/16 06:29:03;;;;;;;2.62;1.35;;;;;;;4.47;85.90;99321.23;1683121;84;21110;-78
2022/11/16 06:31:30;;;;;;;1.67;1.05;;;;;;;4.43;85.44;99302.00;1676187;84;20962;-77
2022/11/16 06:33:56;;;;;;;1.98;1.77;;;;;;;4.39;85.83;99301.22;1687747;84;20990;-78
2022/11/16 06:36:23;;;;;;;2.47;1.30;;;;;;;4.38;85.69;99310.33;1682793;83;20971;-78
2022/11/16 06:38:50;;;;;;;1.45;1.35;;;;;;;4.37;85.75;99309.90;1675549;83;20889;-78
2022/11/16 06:41:16;;;;;;;2.15;1.37;;;;;;;4.35;85.73;99301.37;1676184;83;20985;-77
2022/11/16 06:43:43;;;;;;;1.72;1.37;;;;;;;4.36;85.50;99304.34;1680533;82;20902;-78
2022/11/16 06:46:09;;;;;;;2.03;1.37;;;;;;;4.35;85.60;99314.29;1678150;83;20973;-79
2022/11/16 06:48:36;;;;;;;0.98;0.93;;;;;;;4.33;85.67;99305.72;1687845;83;21393;-79
2022/11/16 06:51:03;;;;;;;1.87;1.20;;;;;;;4.32;85.48;99311.80;1682420;83;20933;-78
2022/11/16 06:53:30;;;;;;;1.27;1.10;;;;;;;4.31;85.56;99305.75;1689639;83;20962;-78
2022/11/16 06:56:03;;;;;;;2.10;1.37;;;;;;;4.31;85.67;99302.33;1658704;84;20962;-80
2022/11/16 06:58:31;;;;;;;4.83;1.22;;;;;;;4.31;85.67;99312.66;1694009;83;20978;-79
2022/11/16 07:00:57;;;;;;;;;;;;;;;4.29;85.48;99311.88;1689835;84;20942;-77
2022/11/16 07:03:24;;;;;;;1.35;1.25;;;;;;;4.26;85.40;99313.66;1680954;83;20237;-77
2022/11/16 07:05:51;;;;;;;1.55;1.32;;;;;;;4.23;85.31;99312.45;1686968;83;21063;-76
2022/11/16 07:08:17;;;;;;;3.62;2.25;;;;;;;4.21;85.46;99318.10;1650791;84;21444;-76
2022/11/16 07:10:44;;;;;;;2.37;1.50;;;;;;;4.22;85.52;99312.03;1698937;83;20922;-76
2022/11/16 07:13:10;;;;;;;1.43;1.20;;;;;;;4.20;85.44;99304.79;1700802;83;21010;-76
2022/11/16 07:15:37;;;;;;;3.47;1.40;;;;;;;4.20;85.33;99319.00;1694059;83;21223;-76
2022/11/16 07:18:05;;;;;;;1.30;1.20;;;;;;;4.19;85.33;99312.12;1696367;83;20980;-76
2022/11/16 07:20:33;;;;;;;2.30;1.05;;;;;;;4.19;85.28;99312.12;1692626;83;21484;-76
2022/11/16 07:23:03;;;;;;;;;;;;;;;4.19;85.15;99313.86;1679799;83;20950;-77
2022/11/16 07:25:32;;;;;;;1.52;1.10;;;;;;;4.18;85.13;99310.44;1676850;83;20105;-77
2022/11/16 07:27:59;;;;;;;1.90;1.35;;;;;;;4.19;85.16;99291.45;1673377;83;21116;-77
2022/11/16 07:30:26;;;;;;;3.07;1.10;;;;;;;4.20;84.55;99328.05;1690156;83;21052;-76
2022/11/16 07:32:58;;;;;;;1.65;1.20;;;;;;;4.20;84.69;99303.50;1694464;83;21027;-78
2022/11/16 07:35:25;;;;;;;2.35;1.02;;;;;;;4.19;84.67;99304.37;1716387;83;20965;-78
2022/11/16 07:37:51;;;;;;;1.98;1.20;;;;;;;4.20;84.84;99299.63;1692186;83;20942;-79
2022/11/16 07:40:18;;;;;;;1.40;1.30;;;;;;;4.21;84.66;99298.72;1667843;84;20970;-80
2022/11/16 07:42:45;;;;;;;2.12;1.40;;;;;;;4.21;84.64;99304.34;1696215;82;21455;-77
2022/11/16 07:45:12;;;;;;;2.27;1.20;;;;;;;4.20;84.61;99297.04;1696734;82;21029;-80
2022/11/16 07:47:38;;;;;;;2.03;1.20;;;;;;;4.19;84.48;99306.95;1696810;82;20951;-79
2022/11/16 07:50:06;;;;;;;1.22;1.12;;;;;;;4.18;84.29;99291.51;1712674;82;20969;-78
2022/11/16 07:52:33;;;;;;;2.47;1.27;;;;;;;4.17;84.14;99298.42;1715599;81;20861;-78
2022/11/16 07:55:00;;;;;;;2.47;1.55;;;;;;;4.14;84.21;99313.98;1722219;81;21892;-78
2022/11/16 07:57:27;;;;;;;2.05;1.60;;;;;;;4.09;84.11;99318.45;1721361;81;20945;-79
2022/11/16 07:59:54;;;;;;;2.12;1.37;;;;;;;4.05;84.01;99334.91;1715773;82;20950;-80
2022/11/16 08:02:21;;;;;;;2.07;1.37;;;;;;;4.00;84.08;99318.67;1709474;82;20957;-77
2022/11/16 08:04:48;;;;;;;2.75;1.85;;;;;;;3.97;83.94;99313.59;1712857;82;20982;-79
2022/11/16 08:07:15;;;;;;;2.52;2.12;;;;;;;3.93;84.05;99318.45;1688398;82;20983;-76
2022/11/16 08:09:42;;;;;;;4.70;2.45;;;;;;;3.89;83.92;99320.70;1712474;82;21443;-77
2022/11/16 08:12:08;;;;;;;3.08;2.20;;;;;;;3.84;83.92;99314.38;1714726;82;20916;-76
2022/11/16 08:14:35;;;;;;;3.77;2.22;;;;;;;3.80;84.09;99307.14;1712716;81;20954;-77
2022/11/16 08:17:02;;;;;;;1.67;1.57;;;;;;;3.80;84.14;99327.80;1711711;82;20981;-79
2022/11/16 08:19:29;;;;;;;3.92;2.42;;;;;;;3.80;83.96;99318.76;1712685;82;21011;-78
2022/11/16 08:21:56;;;;;;;2.17;1.95;;;;;;;3.76;83.90;99331.36;1712330;82;20913;-79
2022/11/16 08:24:22;;;;;;;1.77;1.47;;;;;;;3.74;83.94;99317.63;1719615;81;21419;-80
2022/11/16 08:26:49;;;;;;;2.05;1.42;;;;;;;3.69;83.84;99322.06;1716300;81;20936;-79
2022/11/16 08:29:16;;;;;;;4.58;1.87;;;;;;;3.66;83.87;99319.56;1723588;82;20964;-79
2022/11/16 08:31:44;;;;;;;2.52;2.05;;;;;;;3.65;83.93;99323.05;1713864;82;21886;-80
2022/11/16 08:34:11;;;;;;;2.17;1.90;;;;;;;3.63;83.85;99309.31;1712476;81;21067;-78
2022/11/16 08:36:38;;;;;;;3.35;1.85;;;;;;;3.61;83.81;99317.98;1701280;81;20950;-79
2022/11/16 08:39:04;;;;;;;2.42;2.08;;;;;;;3.57;83.77;99323.23;1709351;81;20942;-78
2022/11/16 08:41:31;;;;;;;2.45;1.52;;;;;;;3.55;83.88;99318.98;1708235;82;20899;-79
2022/11/16 08:43:59;;;;;;;2.20;2.00;;;;;;;3.51;83.94;99322.55;1704457;81;21917;-79
2022/11/16 08:46:25;;;;;;;3.15;2.10;;;;;;;3.47;84.01;99327.36;1717803;82;20928;-79
2022/11/16 08:48:55;;;;;;;2.62;1.92;;;;;;;3.47;84.00;99329.94;1697796;82;20915;-77
2022/11/16 08:51:22;;;;;;;2.83;1.75;;;;;;;3.43;83.96;99342.53;1677593;84;20989;-78
2022/11/16 08:53:56;;;;;;;2.62;2.10;;;;;;;3.36;83.98;99331.08;1695430;82;21485;-78
2022/11/16 08:56:25;;;;;;;3.15;2.15;;;;;;;3.30;84.06;99333.77;1693247;83;21126;-79
2022/11/16 08:58:53;;;;;;;2.25;2.02;;;;;;;3.28;84.18;99323.95;1649016;84;20938;-78
2022/11/16 09:01:22;;;;;;;2.27;2.08;;;;;;;3.26;84.32;99335.20;1665897;83;20973;-78
2022/11/16 09:03:51;;;;;;;2.33;2.08;;;;;;;3.24;84.41;99318.89;1689946;83;20931;-79
2022/11/16 09:06:17;;;;;;;3.47;1.80;;;;;;;3.23;84.48;99330.11;1681279;83;21491;-79
2022/11/16 09:08:45;;;;;;;2.67;1.45;;;;;;;3.22;84.58;99329.27;1693348;83;22288;-78
2022/11/16 09:11:16;;;;;;;2.55;1.52;;;;;;;3.23;84.61;99336.11;1693917;83;20974;-78
2022/11/16 09:13:44;;;;;;;1.52;1.42;;;;;;;3.21;84.56;99324.13;1689926;81;20987;-79
2022/11/16 09:16:14;;;;;;;1.60;1.35;;;;;;;3.17;84.69;99328.52;1684130;82;20948;-79
2022/11/16 09:18:39;;;;;;;8.08;1.02;;;;;;;3.20;84.65;99335.34;1691726;82;20950;-79
2022/11/16 09:21:06;;;;;;;2.02;0.90;;;;;;;3.19;84.49;99347.38;1653343;84;21015;-78
2022/11/16 09:23:38;;;;;;;2.35;1.30;;;;;;;3.13;84.49;99324.30;1679210;83;21002;-74
2022/11/16 09:26:05;;;;;;;1.32;0.98;;;;;;;3.11;84.79;99341.56;1664660;84;21516;-77
2022/11/16 09:28:32;;;;;;;2.08;1.20;;;;;;;3.11;84.71;99331.25;1697051;82;21013;-77
2022/11/16 09:31:04;;;;;;;1.67;1.57;;;;;;;3.10;84.82;99329.53;1695545;82;20986;-77
2022/11/16 09:33:33;;;;;;;3.42;1.22;;;;;;;3.11;85.01;99328.67;1697585;83;21904;-77
2022/11/16 09:36:07;;;;;;;2.42;1.00;;;;;;;3.13;84.92;99337.20;1682901;82;20971;-77
2022/11/16 09:38:40;;;;;;;1.05;0.80;;;;;;;3.13;84.84;99332.05;1650787;84;21071;-77
2022/11/16 09:41:21;;;;;;;0.70;0.70;;;;;;;3.08;84.76;99328.71;1689417;84;20946;-76
2022/11/16 09:43:58;;;;;;;2.47;1.15;;;;;;;3.05;84.80;99321.05;1688392;83;20979;-76
2022/11/16 09:46:36;;;;;;;3.77;1.15;;;;;;;3.01;84.84;99328.47;1682200;83;21488;-77
2022/11/16 09:49:13;;;;;;;2.87;0.80;;;;;;;2.98;84.99;99322.94;1700375;81;20976;-76
2022/11/16 09:51:42;;;;;;;1.37;1.20;;;;;;;3.01;85.07;99322.02;1712075;82;21057;-77
2022/11/16 09:54:16;;;;;;;1.00;0.88;;;;;;;3.01;84.99;99319.44;1711970;82;20916;-76
2022/11/16 09:56:45;;;;;;;0.93;0.80;;;;;;;2.99;85.06;99323.77;1705993;82;20945;-78
2022/11/16 09:59:23;;;;;;;1.90;0.98;;;;;;;3.03;85.21;99315.10;1717627;81;21895;-71
2022/11/16 10:01:55;;;;;;;2.10;1.17;;;;;;;3.04;85.16;99326.66;1694287;82;20898;-75
2022/11/16 10:04:49;;;;;;;1.85;1.30;;;;;;;3.02;85.12;99319.83;1689841;82;20949;-78
2022/11/16 10:07:19;;;;;;;1.52;1.15;;;;;;;2.99;85.14;99318.62;1709090;82;21036;-75
2022/11/16 10:09:46;;;;;;;3.55;0.85;;;;;;;2.97;85.27;99312.64;1680925;83;20958;-71
2022/11/16 10:12:45;;;;;;;1.12;0.90;;;;;;;2.95;85.40;99313.14;1693074;82;21900;-73
2022/11/16 10:15:40;;;;;;;1.87;1.15;;;;;;;2.95;85.42;99311.84;1700080;82;21021;-74
2022/11/16 10:18:43;;;;;;;2.45;1.20;;;;;;;2.93;85.49;99331.66;1621155;85;21055;-75
2022/11/16 10:21:21;;;;;;;2.22;1.52;;;;;;;2.88;85.68;99314.98;1628263;86;20998;-73
2022/11/16 10:24:21;;;;;;;1.82;1.00;;;;;;;2.85;85.82;99312.03;1639790;85;21032;-74
2022/11/16 10:27:02;;;;;;;1.70;1.00;;;;;;;2.89;85.69;99315.41;1617802;86;21073;-75
2022/11/16 10:29:49;;;;;;;1.77;1.10;;;;;;;2.91;85.83;99309.34;1619134;86;20926;-75
2022/11/16 10:32:27;;;;;;;3.98;1.40;;;;;;;2.94;85.69;99311.42;1618297;86;21108;-74
2022/11/16 10:35:02;;;;;;;1.45;1.15;;;;;;;2.91;85.84;99301.60;1618140;86;21507;-73
2022/11/16 10:37:35;;;;;;;2.08;1.40;;;;;;;2.88;85.75;99314.54;1588166;86;21542;-76
2022/11/16 10:40:19;;;;;;;1.22;1.10;;;;;;;2.87;85.91;99305.12;1621641;86;21507;-75
2022/11/16 10:42:51;;;;;;;75.30;7.92;;;;;;;2.91;85.98;99310.62;1614973;86;20958;-74
2022/11/16 10:45:39;;;;;;;1.12;0.93;;;;;;;2.93;86.34;99291.23;1616574;87;20961;-77
2022/11/16 10:48:23;;;;;;;1.17;1.00;;;;;;;2.97;86.07;99301.03;1614448;86;21198;-75
2022/11/16 10:50:52;;;;;;;1.87;1.20;;;;;;;2.92;85.93;99299.87;1557755;90;20972;-75
2022/11/16 10:53:34;;;;;;;0.90;0.80;;;;;;;2.86;86.07;99303.44;1560157;89;21371;-75
2022/11/16 10:56:39;;;;;;;1.85;0.80;;;;;;;2.85;86.05;99303.01;1642910;85;20973;-76
2022/11/16 10:59:20;;;;;;;1.22;0.60;;;;;;;2.84;86.10;99301.77;1641677;85;21746;-72
2022/11/16 11:01:56;;;;;;;2.35;0.60;;;;;;;2.84;85.96;99318.09;1644184;85;20960;-72
2022/11/16 11:04:30;;;;;;;1.60;0.60;;;;;;;2.73;85.68;99298.14;1646210;86;21109;-72
2022/11/16 11:07:24;;;;;;;3.67;0.90;;;;;;;2.61;85.75;99310.02;1650354;86;21240;-72
2022/11/16 11:09:54;;;;;;;1.55;0.80;;;;;;;2.55;85.89;99309.70;1644809;84;21907;-74
2022/11/16 11:12:38;;;;;;;1.67;0.80;;;;;;;2.51;85.94;99308.50;1643292;85;21137;-70
2022/11/16 11:15:21;;;;;;;1.35;0.80;;;;;;;2.49;85.90;99305.10;1643413;85;21537;-71
2022/11/16 11:17:52;;;;;;;1.45;0.93;;;;;;;2.48;85.92;99304.27;1643442;85;21151;-72
2022/11/16 11:20:23;;;;;;;1.47;0.93;;;;;;;2.46;86.02;99294.00;1645378;85;21040;-72
2022/11/16 11:22:59;;;;;;;1.57;1.02;;;;;;;2.48;86.07;99293.11;1646582;85;20956;-73
2022/11/16 11:25:31;;;;;;;1.30;1.05;;;;;;;2.44;86.01;99296.20;1644919;85;20997;-71
2022/11/16 11:28:24;;;;;;;1.95;1.25;;;;;;;2.45;86.05;99299.17;1666456;84;21555;-73
2022/11/16 11:31:21;;;;;;;2.08;1.17;;;;;;;2.44;86.13;99288.02;1683378;84;20994;-80
2022/11/16 11:33:52;;;;;;;2.60;1.17;;;;;;;2.44;86.13;99295.75;1692259;83;22084;-73
2022/11/16 11:36:23;;;;;;;1.67;0.95;;;;;;;2.48;86.18;99287.95;1667040;83;20961;-74
2022/11/16 11:39:07;;;;;;;1.42;1.02;;;;;;;2.48;86.18;99295.69;1695954;83;20970;-72
2022/11/16 11:41:42;;;;;;;1.52;1.15;;;;;;;2.42;86.02;99287.64;1690976;83;20935;-74
2022/11/16 11:44:19;;;;;;;1.67;1.07;;;;;;;2.40;86.11;99294.11;1686024;83;21000;-72
2022/11/16 11:47:08;;;;;;;;;;;;;;;2.40;86.18;99299.26;1692396;83;21078;-72
2022/11/16 11:49:39;;;;;;;9.00;2.25;;;;;;;2.41;86.23;99292.41;1693448;83;20158;-71
2022/11/16 11:52:16;;;;;;;2.60;1.95;;;;;;;2.40;86.14;99291.97;1692184;83;21638;-72
2022/11/16 11:54:46;;;;;;;;;;;;;;;2.39;86.22;99296.28;1682385;83;20938;-71
2022/11/16 11:57:20;;;;;;;3.27;1.32;;;;;;;2.40;86.23;99291.97;1675268;84;20484;-71
2022/11/16 11:59:45;;;;;;;2.27;1.30;;;;;;;2.39;86.17;99301.89;1676829;83;21551;-74
2022/11/16 12:03:02;;;;;;;1.50;1.20;;;;;;;2.40;86.25;99291.53;1647235;84;20997;-74
2022/11/16 12:06:03;;;;;;;2.20;1.70;;;;;;;2.42;86.18;99306.97;1673954;83;20961;-73
2022/11/16 12:09:17;;;;;;;3.87;1.45;;;;;;;2.44;86.33;99295.75;1684880;82;20958;-72
2022/11/16 12:12:35;;;;;;;1.22;1.00;;;;;;;2.46;86.30;99300.86;1683502;83;20958;-73
2022/11/16 12:15:23;;;;;;;1.47;1.12;;;;;;;2.50;86.36;99295.22;1690609;81;20974;-72
2022/11/16 12:17:55;;;;;;;1.65;1.20;;;;;;;2.49;86.24;99294.80;1681522;83;21011;-73
2022/11/16 12:20:57;;;;;;;1.20;1.05;;;;;;;2.45;86.23;99302.59;1679545;83;20985;-72
2022/11/16 12:24:07;;;;;;;2.00;1.57;;;;;;;2.44;86.16;99291.89;1680192;83;21002;-73
2022/11/16 12:26:45;;;;;;;1.98;1.05;;;;;;;2.40;86.25;99286.38;1677510;83;20933;-72
2022/11/16 12:29:41;;;;;;;1.50;1.02;;;;;;;2.45;86.35;99297.44;1640038;84;21102;-74
2022/11/16 12:32:34;;;;;;;6.30;3.57;;;;;;;2.45;86.17;99289.70;1665315;83;20943;-73
2022/11/16 12:35:28;;;;;;;1.55;1.30;;;;;;;2.39;85.98;99307.87;1654391;84;21085;-73
2022/11/16 12:38:18;;;;;;;2.20;1.12;;;;;;;2.36;86.14;99286.05;1677160;83;20995;-73
2022/11/16 12:41:11;;;;;;;1.40;1.02;;;;;;;2.37;86.02;99295.91;1680643;83;20917;-73
2022/11/16 12:44:13;;;;;;;2.45;1.55;;;;;;;2.34;85.83;99291.66;1666634;83;21215;-73
2022/11/16 12:47:13;;;;;;;1.15;0.80;;;;;;;2.35;85.92;99293.38;1684198;83;21476;-72